createdAt,value
2023-04-08T00:00:51.586Z,22.60
2023-04-08T00:04:49.650Z,22.10
2023-04-08T00:08:47.610Z,22.40
2023-04-08T00:12:45.538Z,21.90
2023-04-08T00:16:43.879Z,24.00
2023-04-08T00:20:41.503Z,23.30
2023-04-08T00:24:39.577Z,22.50
2023-04-08T00:28:37.477Z,22.90
2023-04-08T00:32:35.483Z,23.70
2023-04-08T00:36:34.478Z,24.50
2023-04-08T00:40:32.501Z,23.90
2023-04-08T00:44:30.486Z,25.00
2023-04-08T00:48:28.424Z,25.00
2023-04-08T00:52:26.550Z,26.20
2023-04-08T00:56:24.481Z,26.90
2023-04-08T01:00:23.495Z,27.60
2023-04-08T01:04:27.578Z,25.60
2023-04-08T01:08:26.555Z,26.40
2023-04-08T01:12:33.403Z,26.70
2023-04-08T01:16:32.423Z,28.60
2023-04-08T01:20:31.383Z,28.20
2023-04-08T01:24:42.441Z,26.20
2023-04-08T01:28:44.409Z,29.00
2023-04-08T01:32:43.409Z,26.30
2023-04-08T01:36:43.397Z,25.30
2023-04-08T01:40:41.400Z,26.20
2023-04-08T01:44:41.379Z,25.60
2023-04-08T01:48:39.417Z,25.00
2023-04-08T01:52:38.421Z,25.10
2023-04-08T01:56:38.379Z,24.20
2023-04-08T02:00:42.362Z,23.90
2023-04-08T02:04:40.588Z,23.80
2023-04-08T02:08:40.335Z,24.70
2023-04-08T02:12:38.364Z,23.10
2023-04-08T02:16:54.320Z,24.20
2023-04-08T02:20:56.427Z,22.10
2023-04-08T02:24:55.323Z,23.30
2023-04-08T02:28:55.352Z,21.30
2023-04-08T02:32:53.481Z,20.80
2023-04-08T02:36:52.342Z,20.70
2023-04-08T02:40:50.348Z,20.50
2023-04-08T02:44:48.339Z,21.50
2023-04-08T02:48:47.371Z,22.30
2023-04-08T02:52:45.325Z,23.20
2023-04-08T02:56:43.352Z,21.50
2023-04-08T03:00:41.323Z,20.40
2023-04-08T03:04:39.281Z,20.90
2023-04-08T03:08:37.331Z,19.90
2023-04-08T03:12:35.254Z,18.80
2023-04-08T03:16:33.284Z,19.30
2023-04-08T03:20:31.237Z,21.20
2023-04-08T03:24:29.237Z,18.70
2023-04-08T03:28:27.282Z,16.70
2023-04-08T03:32:25.332Z,19.20
2023-04-08T03:36:23.206Z,19.20
2023-04-08T03:40:22.239Z,20.20
2023-04-08T03:44:20.246Z,19.00
2023-04-08T03:48:18.224Z,19.70
2023-04-08T03:52:16.186Z,19.80
2023-04-08T03:56:14.256Z,20.20
2023-04-08T04:00:13.197Z,18.40
2023-04-08T04:04:12.331Z,20.70
2023-04-08T04:08:10.173Z,19.40
2023-04-08T04:12:08.230Z,19.00
2023-04-08T04:16:06.194Z,19.00
2023-04-08T04:20:06.165Z,19.40
2023-04-08T04:24:04.174Z,19.60
2023-04-08T04:28:02.153Z,17.90
2023-04-08T04:32:00.135Z,17.30
2023-04-08T04:35:58.186Z,17.50
2023-04-08T04:39:56.235Z,17.60
2023-04-08T04:43:54.157Z,18.40
2023-04-08T04:47:52.164Z,17.00
2023-04-08T04:51:50.162Z,16.90
2023-04-08T04:55:48.134Z,15.90
2023-04-08T04:59:46.213Z,16.10
2023-04-08T05:03:44.434Z,16.50
2023-04-08T05:07:42.103Z,16.90
2023-04-08T05:11:42.681Z,16.80
2023-04-08T05:15:41.129Z,16.50
2023-04-08T05:19:39.094Z,15.80
2023-04-08T05:23:37.089Z,15.20
2023-04-08T05:27:43.049Z,15.40
2023-04-08T05:31:41.294Z,15.90
2023-04-08T05:35:39.147Z,16.80
2023-04-08T05:39:37.142Z,18.10
2023-04-08T05:43:35.154Z,16.60
2023-04-08T05:47:33.098Z,17.50
2023-04-08T05:51:31.035Z,16.50
2023-04-08T05:55:29.051Z,16.00
2023-04-08T05:59:26.984Z,16.20
2023-04-08T06:03:25.222Z,16.60
2023-04-08T06:07:23.031Z,15.60
2023-04-08T06:11:21.101Z,16.10
2023-04-08T06:15:19.082Z,16.60
2023-04-08T06:19:17.156Z,16.40
2023-04-08T06:23:14.989Z,16.60
2023-04-08T06:27:13.043Z,17.00
2023-04-08T06:31:10.977Z,16.80
2023-04-08T06:35:09.071Z,18.60
2023-04-08T06:39:07.054Z,18.00
2023-04-08T06:43:06.055Z,20.40
2023-04-08T06:47:05.957Z,18.10
2023-04-08T06:51:03.954Z,19.30
2023-04-08T06:55:02.957Z,18.00
2023-04-08T06:59:00.960Z,19.30
2023-04-08T07:02:59.002Z,19.70
2023-04-08T07:06:57.000Z,18.90
2023-04-08T07:10:54.984Z,19.30
2023-04-08T07:14:53.060Z,19.00
2023-04-08T07:18:51.067Z,19.90
2023-04-08T07:22:49.121Z,18.50
2023-04-08T07:26:47.012Z,18.20
2023-04-08T07:30:44.919Z,18.90
2023-04-08T07:34:42.958Z,18.70
2023-04-08T07:38:41.037Z,17.50
2023-04-08T07:42:40.730Z,16.60
2023-04-08T07:46:39.106Z,18.40
2023-04-08T07:50:36.919Z,16.80
2023-04-08T07:54:54.965Z,16.90
2023-04-08T07:58:53.941Z,17.50
2023-04-08T08:02:51.919Z,17.30
2023-04-08T08:06:49.939Z,15.70
2023-04-08T08:10:47.914Z,17.30
2023-04-08T08:14:45.890Z,17.60
2023-04-08T08:18:43.982Z,17.10
2023-04-08T08:22:50.925Z,16.00
2023-04-08T08:26:56.010Z,15.30
2023-04-08T08:30:53.906Z,15.80
2023-04-08T08:34:51.862Z,12.60
2023-04-08T08:38:49.855Z,16.30
2023-04-08T08:42:48.027Z,14.00
2023-04-08T08:46:45.870Z,16.90
2023-04-08T08:50:43.839Z,12.50
2023-04-08T08:54:41.804Z,15.80
2023-04-08T08:58:42.907Z,11.70
2023-04-08T09:02:45.935Z,14.90
2023-04-08T09:06:43.812Z,11.50
2023-04-08T09:10:43.813Z,11.40
2023-04-08T09:14:41.890Z,11.40
2023-04-08T09:18:39.873Z,11.00
2023-04-08T09:22:38.752Z,9.90
2023-04-08T09:26:37.790Z,10.90
2023-04-08T09:30:39.845Z,11.30
2023-04-08T09:34:38.730Z,10.40
2023-04-08T09:38:37.758Z,11.00
2023-04-08T09:42:35.774Z,10.50
2023-04-08T09:46:46.749Z,9.10
2023-04-08T09:50:48.786Z,9.40
2023-04-08T09:55:13.759Z,9.70
2023-04-08T09:59:17.721Z,9.70
2023-04-08T10:03:38.036Z,8.90
2023-04-08T10:07:35.746Z,9.80
2023-04-08T10:11:33.794Z,10.10
2023-04-08T10:15:47.726Z,9.60
2023-04-08T10:19:53.741Z,8.70
2023-04-08T10:24:12.708Z,9.00
2023-04-08T10:28:10.773Z,8.00
2023-04-08T10:32:09.850Z,7.90
2023-04-08T10:36:22.723Z,7.90
2023-04-08T10:40:20.682Z,7.90
2023-04-08T10:44:18.735Z,8.60
2023-04-08T10:48:35.655Z,7.70
2023-04-08T10:52:34.703Z,7.80
2023-04-08T10:56:32.735Z,7.40
2023-04-08T11:00:46.689Z,7.40
2023-04-08T11:04:44.824Z,8.10
2023-04-08T11:08:43.728Z,8.00
2023-04-08T11:12:41.658Z,6.70
2023-04-08T11:16:41.738Z,6.80
2023-04-08T11:20:41.724Z,7.00
2023-04-08T11:24:39.659Z,7.90
2023-04-08T11:28:37.655Z,7.00
2023-04-08T11:32:35.729Z,7.40
2023-04-08T11:36:34.620Z,7.30
2023-04-08T11:40:35.659Z,6.60
2023-04-08T11:44:33.690Z,7.80
2023-04-08T11:48:31.601Z,6.60
2023-04-08T11:52:30.564Z,7.60
2023-04-08T11:56:32.622Z,6.80
2023-04-08T12:00:30.624Z,6.60
2023-04-08T12:04:28.662Z,7.10
2023-04-08T12:08:26.552Z,6.20
2023-04-08T12:12:24.674Z,6.70
2023-04-08T12:16:22.633Z,6.20
2023-04-08T12:20:22.591Z,6.30
2023-04-08T12:24:20.630Z,7.30
2023-04-08T12:28:18.617Z,6.10
2023-04-08T12:32:16.589Z,6.70
2023-04-08T12:36:14.728Z,6.00
2023-04-08T12:40:12.655Z,6.30
2023-04-08T12:44:11.654Z,6.10
2023-04-08T12:48:09.716Z,6.70
2023-04-08T12:52:07.724Z,6.60
2023-04-08T12:56:05.749Z,6.60
2023-04-08T13:00:04.594Z,6.40
2023-04-08T13:04:02.643Z,6.30
2023-04-08T13:08:00.697Z,6.30
2023-04-08T13:11:58.762Z,6.80
2023-04-08T13:15:56.631Z,6.50
2023-04-08T13:19:56.552Z,6.40
2023-04-08T13:23:54.601Z,6.30
2023-04-08T13:27:52.507Z,6.30
2023-04-08T13:31:50.649Z,6.50
2023-04-08T13:35:50.547Z,6.50
2023-04-08T13:39:48.582Z,6.20
2023-04-08T13:43:46.566Z,6.50
2023-04-08T13:47:44.730Z,6.90
2023-04-08T13:51:42.516Z,6.10
2023-04-08T13:55:41.519Z,6.70
2023-04-08T13:59:39.527Z,6.40
2023-04-08T14:03:38.500Z,6.30
2023-04-08T14:07:36.430Z,7.40
2023-04-08T14:11:35.456Z,7.10
2023-04-08T14:15:34.471Z,7.20
2023-04-08T14:19:32.667Z,7.00
2023-04-08T14:23:30.445Z,7.40
2023-04-08T14:27:28.444Z,9.30
2023-04-08T14:31:26.548Z,7.60
2023-04-08T14:35:24.482Z,7.80
2023-04-08T14:39:22.424Z,7.60
2023-04-08T14:43:20.416Z,7.90
2023-04-08T14:47:18.438Z,7.70
2023-04-08T14:51:16.596Z,7.70
2023-04-08T14:55:14.503Z,7.10
2023-04-08T14:59:12.381Z,7.40
2023-04-08T15:03:10.586Z,10.80
2023-04-08T15:07:20.395Z,7.10
2023-04-08T15:11:18.480Z,7.50
2023-04-08T15:15:16.465Z,7.30
2023-04-08T15:19:14.394Z,10.30
2023-04-08T15:23:12.368Z,7.60
2023-04-08T15:27:10.488Z,10.30
2023-04-08T15:31:08.411Z,8.30
2023-04-08T15:35:06.354Z,10.90
2023-04-08T15:39:05.450Z,7.40
2023-04-08T15:43:05.675Z,7.20
2023-04-08T15:47:03.465Z,10.20
2023-04-08T15:51:01.342Z,7.30
2023-04-08T15:54:59.417Z,8.80
2023-04-08T15:58:59.349Z,7.80
2023-04-08T16:02:57.494Z,10.00
2023-04-08T16:06:55.277Z,9.10
2023-04-08T16:10:53.407Z,11.10
2023-04-08T16:14:51.362Z,10.50
2023-04-08T16:18:50.469Z,12.90
2023-04-08T16:22:49.366Z,14.60
2023-04-08T16:26:47.303Z,14.60
2023-04-08T16:30:51.262Z,13.90
2023-04-08T16:34:49.357Z,14.80
2023-04-08T16:38:47.227Z,15.00
2023-04-08T16:42:45.274Z,13.40
2023-04-08T16:46:43.290Z,17.00
2023-04-08T16:50:41.362Z,12.60
2023-04-08T16:54:39.252Z,18.20
2023-04-08T16:58:37.419Z,19.00
2023-04-08T17:02:35.418Z,20.50
2023-04-08T17:06:34.305Z,20.30
2023-04-08T17:10:34.232Z,25.10
2023-04-08T17:14:34.263Z,23.90
2023-04-08T17:18:32.229Z,19.80
2023-04-08T17:22:30.249Z,35.50
2023-04-08T17:26:29.217Z,27.40
2023-04-08T17:30:28.238Z,25.30
2023-04-08T17:34:27.194Z,33.10
2023-04-08T17:38:25.207Z,27.30
2023-04-08T17:42:23.218Z,28.40
2023-04-08T17:46:21.337Z,27.00
2023-04-08T17:50:19.233Z,21.10
2023-04-08T17:54:19.183Z,25.90
2023-04-08T17:58:17.244Z,26.80
2023-04-08T18:02:15.386Z,25.80
2023-04-08T18:06:13.201Z,27.50
2023-04-08T18:10:13.231Z,33.00
2023-04-08T18:14:11.202Z,35.00
2023-04-08T18:18:09.188Z,37.90
2023-04-08T18:22:07.165Z,39.00
2023-04-08T18:26:05.249Z,37.00
2023-04-08T18:30:03.180Z,39.40
2023-04-08T18:34:01.197Z,35.20
2023-04-08T18:37:59.186Z,32.20
2023-04-08T18:41:57.136Z,32.00
2023-04-08T18:45:55.125Z,30.50
2023-04-08T18:49:53.160Z,30.10
2023-04-08T18:53:51.462Z,27.90
2023-04-08T18:57:49.173Z,27.70
2023-04-08T19:01:47.272Z,27.10
2023-04-08T19:05:45.152Z,27.40
2023-04-08T19:09:43.109Z,26.60
2023-04-08T19:13:41.060Z,26.20
2023-04-08T19:17:39.182Z,25.30
2023-04-08T19:21:37.148Z,26.90
2023-04-08T19:25:35.054Z,25.80
2023-04-08T19:29:39.169Z,25.10
2023-04-08T19:33:37.020Z,24.60
2023-04-08T19:37:35.078Z,24.30
2023-04-08T19:41:34.067Z,23.90
2023-04-08T19:45:32.093Z,26.20
2023-04-08T19:49:30.019Z,25.40
2023-04-08T19:53:28.155Z,27.10
2023-04-08T19:57:26.050Z,25.40
2023-04-08T20:01:26.077Z,25.70
2023-04-08T20:05:23.988Z,25.30
2023-04-08T20:09:23.028Z,24.20
2023-04-08T20:13:22.033Z,22.70
2023-04-08T20:17:22.206Z,23.90
2023-04-08T20:21:21.066Z,24.50
2023-04-08T20:25:18.966Z,22.80
2023-04-08T20:29:17.039Z,24.20
2023-04-08T20:33:14.950Z,22.40
2023-04-08T20:37:13.965Z,21.80
2023-04-08T20:41:11.996Z,23.70
2023-04-08T20:45:10.068Z,23.30
2023-04-08T20:49:07.955Z,23.60
2023-04-08T20:53:05.936Z,22.60
2023-04-08T20:57:04.020Z,23.20
2023-04-08T21:01:05.373Z,24.40
2023-04-08T21:05:03.964Z,21.30
2023-04-08T21:09:02.902Z,20.60
2023-04-08T21:13:02.067Z,22.80
2023-04-08T21:16:59.917Z,21.00
2023-04-08T21:20:58.020Z,26.20
2023-04-08T21:24:55.907Z,30.70
2023-04-08T21:28:53.972Z,28.30
2023-04-08T21:32:51.995Z,30.40
2023-04-08T21:36:53.114Z,31.00
2023-04-08T21:40:50.887Z,29.70
2023-04-08T21:44:48.878Z,32.30
2023-04-08T21:48:46.939Z,27.10
2023-04-08T21:52:45.940Z,29.60
2023-04-08T21:56:43.862Z,29.80
2023-04-08T22:00:41.953Z,30.60
2023-04-08T22:04:39.869Z,31.70
2023-04-08T22:08:38.889Z,30.80
2023-04-08T22:12:37.892Z,32.40
2023-04-08T22:16:35.878Z,31.50
2023-04-08T22:20:34.829Z,33.10
2023-04-08T22:24:35.863Z,30.20
2023-04-08T22:28:33.783Z,27.40
2023-04-08T22:32:31.921Z,27.40
2023-04-08T22:36:29.809Z,28.10
2023-04-08T22:40:28.792Z,27.60
2023-04-08T22:44:26.848Z,26.30
2023-04-08T22:48:24.916Z,27.70
2023-04-08T22:52:22.792Z,27.60
2023-04-08T22:56:20.805Z,26.40
2023-04-08T23:00:18.806Z,29.80
2023-04-08T23:04:16.977Z,28.80
2023-04-08T23:08:14.768Z,26.20
2023-04-08T23:12:12.789Z,26.50
2023-04-08T23:16:10.878Z,23.40
2023-04-08T23:20:08.919Z,25.30
2023-04-08T23:24:06.840Z,22.50
2023-04-08T23:28:04.773Z,27.50
2023-04-08T23:32:02.826Z,29.10
2023-04-08T23:36:01.961Z,28.60
2023-04-08T23:39:59.708Z,28.40
2023-04-08T23:43:59.736Z,26.90
2023-04-08T23:47:57.783Z,24.60
2023-04-08T23:51:56.789Z,22.60
2023-04-08T23:55:59.099Z,22.50
2023-04-08T23:59:56.733Z,22.40
